Pagrindinis puslapis
METAR-TAF:

METAR-TAF

Oro uostai :

Abumusa, Iranas

platuma: 25-52-33N, ilguma: 055-02-01E, Aukštis: 7 m

Dabartinis oras

Ataskaita buvo paskelbta 50 minutes, ne 10:00 UTC
Vėjas 4 kt iš Vakarų
Temperatūra 33°C
Drėgmė 49%
Slėgis 1014 hPa
Matomumas: 6000 m
Mažai debesys ne aukštis 2500 ft

METAR: OIBA 141000Z 27004KT 6000 FEW025 33/21 Q1014

Laikas: 14:20 (10:50 UTC)


TAF: trūkstamas

Orai ataskaitas ir orų prognozės (METAR, TAF).

turimą stotys yra geltonos ir raudonos taškus žemėlapyje.

Perkelti pele per norėdami pamatyti stoties vardą.

Tada spustelėkite, norėdami matyti oro stebėjimo ir prognozės.

Norėdami pakeisti žemėlapį: spustelėkite ant žalios mygtukų su juodo kryžiaus žemyn,; žalią mygtuką su brūkšneliu, jei norite nutolinti; arba žalių rodyklių gretimoms žemėlapius.


METAR-TAF: